Latest METARs, TAFs and NOTAMs for MMTO


---------------------------------------------------------------------------
	(OBSERVATIONS)
MMTO 240246Z 31011KT 4SM -TSRA  BKN015CB OVC070 14/09 A3033 
    RMK SLP083 52020 915 60115 8/96/ HZY=
MMTO 240231Z 34017KT 4SM -TSRA BKN015CB OVC070 14/09 A3032 RMK
    8/96/ RAB25 HZY=
MMTO 240231Z 34017KT 4SM -TSRA  BKN015CB OVC070 14/09 A3032 
    RMK 8/96/ RAB25  HZY= TX_OP
MMTO 240146Z 10007KT 4SM TS  BKN015CB BKN080 BKN200 19/08 A3029
     RMK 8/963 PCPN 1QUAD DROPS CONL HZY TSB44=
MMTO 240047Z 22004KT 4SM  SCT020CB BKN080 BKN200 20/07 A3026
     RMK 8/362 HZ FU=
---------------------------------------------------------------------------
	(TERMINAL AREA FORECAST)
AMD MMTO 240302Z 2403/2506 31011KT 4SM TSRA BKN015CB OVC070 TX25/2421Z
    TN08/2412Z
    FM240600 00000KT 5SM HZ SCT015 BKN070 BKN200
    FM241100 06005KT 4SM BR SCT015 SCT200
    TEMPO 2412/2415 2SM BR
    FM241800 20010KT 5SM HZ SCT020 BKN200
    PROB40 2421/2501 4SM TSRA BKN020CB=
---------------------------------------------------------------------------
	(NOTAMS)


MMTO A1787/19 RWY 15/33 CLSD. 1600/1700 DAYS 9,16,23 AND 30 ABR
    1600/1700 DAYS 7,14,21 AND 28 MAY, 09 APR 16:00 2019 UNTIL
    28 MAY 17:00 2019. CREATED: 02 APR 14:43 2019

MMTO A2845/19 RWY 15/33 CLSD. 0500/1100 DAYS 25, 26 AND 27 MAY,
    25 MAY 05:00 2019 UNTIL 27 MAY 11:00 2019. CREATED: 21 MAY
    01:00 2019

MMTO A2894/19 ACFT STAND NR-7 COMMERCIAL AVIATION APRON CLSD.
    23 MAY 14:00 2019 UNTIL 24 MAY 23:00 2019. CREATED: 23 MAY
    00:14 2019

MMTO V0189/19 [US DOD PROCEDURAL NOTAM] INSTRUMENT APPROACH PROCEDURE
    LIMITED VOR/DME 2 RWY 33. ONE FEEDER RTE NA. DO NOT UTILIZE
    FEEDER RTE FROM CRP NOGAL TO (IAF) TLC VOR/DME R-181/17 DME.
    29 MAR 18:52 2019 UNTIL 01 JUL 00:01 2019. CREATED: 29 MAR
    18:52 2019

MMTO V0242/19 [US DOD PROCEDURAL NOTAM] INSTRUMENT APPROACH PROCEDURE
    CHANGED VOR/DME 1 RWY 15 AND VOR/DME 2 RWY 15; INITIAL MISSED
    APPROACH INSTRUCTIONS FROM "CLIMB TO 12,000 ON COURSE 152
    ..." TO READ "CLIMB TO 12,000 ON TLC VOR/DME R-152...", REST
    OF ROUTING UNCHANGED. 25 APR 00:01 2019 UNTIL 19 JUN 23:59
    2019. CREATED: 23 APR 18:23 2019

---------------------------------------------------------------------------